Indian, AK (99540)

10:11 PM AKDT on September 25, 2016 (GMT -0800)
Oceanview | | Change Station

Elev 75 ft 61.11 °N, 149.91 °W | Updated 1 minute ago

Overcast
Overcast
45.1 °F
Feels Like 45 °F
N
0.0
Wind Variable Wind from South
Gusts 1.6 mph

Today
High -- | Low -- °F
--% Chance of Precip.
Yesterday
High -- | Low -- °F
Precip. -- in
Pressure 29.86 in
Visibility 10.0 miles
Clouds Few 4200 ft
Mostly Cloudy 6000 ft
Overcast 13000 ft
Windchill 45 °F
Dew Point 42 °F
Humidity 89%
Rainfall 0.05 in
Snow Depth Not available.
7:52 AM 7:47 PM
Waning Crescent, 21% visible
METAR PANC 260553Z 00000KT 10SM FEW042 BKN060 OVC130 08/05 A2985 RMK AO2 SLP110 60001 T00780050 10100 20072 53002
Pressure 29.86 in
Visibility 10.0 miles
Clouds Few 4200 ft
Mostly Cloudy 6000 ft
Overcast 13000 ft
Windchill 45 °F
Dew Point 42 °F
Humidity 89%
Rainfall 0.05 in
Snow Depth Not available.
7:52 AM 7:47 PM
Waning Crescent, 21% visible
METAR PANC 260553Z 00000KT 10SM FEW042 BKN060 OVC130 08/05 A2985 RMK AO2 SLP110 60001 T00780050 10100 20072 53002

10-Day Weather Forecast

Almanac

Astronomy

Sep. 25, 2016 Rise Set
Actual Time
Civil Twilight
Nautical Twilight
Astronomical Twilight
Moon
Length of Visible Light
Length of Day
Tomorrow will be .
, % of the Moon is Illuminated

Today's Extremes

State Highs State Lows

Community

WunderPhotos

Upload Photos

1,941,853 photos uploaded!

WunderBlog® & News

Nearby

Air Quality

  Air Quality AQ Index Pollutant
Not available.

Snow Depth

Station Depth Elevation

Earthquake Activity

City Distance Mag. Time & Date
Minimum magnitude displayed is 2.5.

Coastal Water Temperatures

Place Temperature

Stations

Nearby Weather Stations

Station Location Temp. Windchill Dew Point Humidity Wind Precip. Elev Updated Type
                   

Watches & Warnings

There are currently no watches in effect.